createdAt,value
2019-06-07T00:00:47.614Z,16.53
2019-06-07T00:01:46.674Z,16.53
2019-06-07T00:02:46.629Z,16.65
2019-06-07T00:03:46.591Z,16.51
2019-06-07T00:04:46.577Z,16.56
2019-06-07T00:05:46.607Z,16.58
2019-06-07T00:06:46.597Z,16.53
2019-06-07T00:07:46.497Z,16.54
2019-06-07T00:08:46.467Z,16.56
2019-06-07T00:09:46.452Z,16.58
2019-06-07T00:10:46.422Z,16.57
2019-06-07T00:11:46.431Z,16.58
2019-06-07T00:12:46.369Z,16.56
2019-06-07T00:13:46.338Z,16.56
2019-06-07T00:14:46.316Z,16.58
2019-06-07T00:15:46.290Z,16.57
2019-06-07T00:16:46.267Z,16.49
2019-06-07T00:17:46.327Z,16.51
2019-06-07T00:18:46.258Z,16.61
2019-06-07T00:19:46.206Z,16.53
2019-06-07T00:20:46.169Z,16.47
2019-06-07T00:22:15.737Z,16.50
2019-06-07T00:22:53.248Z,16.47
2019-06-07T00:23:46.089Z,16.42
2019-06-07T00:24:46.056Z,16.41
2019-06-07T00:25:46.036Z,16.35
2019-06-07T00:26:57.813Z,16.39
2019-06-07T00:27:46.036Z,16.32
2019-06-07T00:28:45.952Z,16.31
2019-06-07T00:29:45.931Z,16.26
2019-06-07T00:30:52.312Z,16.23
2019-06-07T00:31:45.915Z,16.17
2019-06-07T00:32:45.870Z,16.16
2019-06-07T00:33:45.826Z,16.04
2019-06-07T00:34:45.796Z,16.09
2019-06-07T00:35:45.804Z,16.04
2019-06-07T00:36:45.747Z,15.94
2019-06-07T00:37:45.749Z,15.95
2019-06-07T00:38:45.764Z,15.80
2019-06-07T00:39:45.674Z,15.80
2019-06-07T00:40:45.645Z,15.79
2019-06-07T00:41:45.615Z,15.77
2019-06-07T00:42:45.616Z,15.79
2019-06-07T00:43:45.567Z,15.72
2019-06-07T00:44:45.548Z,15.76
2019-06-07T00:45:45.514Z,15.73
2019-06-07T00:46:45.485Z,15.73
2019-06-07T00:47:45.486Z,15.58
2019-06-07T00:48:45.433Z,15.59
2019-06-07T00:49:45.407Z,15.59
2019-06-07T00:50:45.393Z,15.55
2019-06-07T00:51:50.409Z,15.44
2019-06-07T00:53:45.302Z,15.40
2019-06-07T00:54:45.288Z,15.40
2019-06-07T00:55:45.251Z,15.40
2019-06-07T00:56:45.233Z,15.35
2019-06-07T00:57:45.228Z,15.36
2019-06-07T00:58:45.177Z,15.31
2019-06-07T00:59:45.159Z,15.37
2019-06-07T01:00:45.159Z,15.24
2019-06-07T01:01:45.093Z,15.35
2019-06-07T01:02:45.092Z,15.33
2019-06-07T01:03:45.044Z,15.31
2019-06-07T01:04:45.026Z,15.36
2019-06-07T01:05:44.993Z,15.28
2019-06-07T01:06:44.979Z,15.39
2019-06-07T01:07:45.055Z,15.39
2019-06-07T01:08:44.910Z,15.37
2019-06-07T01:09:44.889Z,15.39
2019-06-07T01:10:53.608Z,15.31
2019-06-07T01:11:44.849Z,15.33
2019-06-07T01:12:44.992Z,15.33
2019-06-07T01:13:44.777Z,15.35
2019-06-07T01:14:44.780Z,15.29
2019-06-07T01:15:44.723Z,15.33
2019-06-07T01:16:57.440Z,15.22
2019-06-07T01:18:32.623Z,15.24
2019-06-07T01:18:46.737Z,15.25
2019-06-07T01:19:44.618Z,15.24
2019-06-07T01:20:44.595Z,15.15
2019-06-07T01:21:44.564Z,15.15
2019-06-07T01:22:44.537Z,15.11
2019-06-07T01:24:08.784Z,15.06
2019-06-07T01:24:44.489Z,15.06
2019-06-07T01:25:44.461Z,15.06
2019-06-07T01:26:45.646Z,15.03
2019-06-07T01:27:44.420Z,15.06
2019-06-07T01:28:44.419Z,15.02
2019-06-07T01:29:44.352Z,14.97
2019-06-07T01:30:44.328Z,14.97
2019-06-07T01:31:44.351Z,14.84
2019-06-07T01:32:44.275Z,14.92
2019-06-07T01:33:50.670Z,14.91
2019-06-07T01:34:44.221Z,14.92
2019-06-07T01:35:44.195Z,14.82
2019-06-07T01:36:44.180Z,14.79
2019-06-07T01:37:44.225Z,14.79
2019-06-07T01:38:44.167Z,14.82
2019-06-07T01:39:44.103Z,14.73
2019-06-07T01:40:44.069Z,14.65
2019-06-07T01:41:44.960Z,14.72
2019-06-07T01:42:44.012Z,14.77
2019-06-07T01:43:44.001Z,14.77
2019-06-07T01:44:43.957Z,14.78
2019-06-07T01:45:43.930Z,14.68
2019-06-07T01:46:43.918Z,14.70
2019-06-07T01:47:43.875Z,14.72
2019-06-07T01:48:49.403Z,14.68
2019-06-07T01:49:43.829Z,14.70
2019-06-07T01:50:43.793Z,14.68
2019-06-07T01:51:43.772Z,14.73
2019-06-07T01:52:43.735Z,14.81
2019-06-07T01:53:43.754Z,14.79
2019-06-07T01:54:56.767Z,14.68
2019-06-07T01:55:43.688Z,14.62
2019-06-07T01:56:43.632Z,14.68
2019-06-07T01:57:48.317Z,14.66
2019-06-07T01:58:43.594Z,14.62
2019-06-07T01:59:43.550Z,14.59
2019-06-07T02:00:44.371Z,14.48
2019-06-07T02:01:43.514Z,14.53
2019-06-07T02:02:43.469Z,14.48
2019-06-07T02:03:43.527Z,14.43
2019-06-07T02:04:43.418Z,14.45
2019-06-07T02:05:43.445Z,14.51
2019-06-07T02:06:43.413Z,14.45
2019-06-07T02:07:43.334Z,14.58
2019-06-07T02:08:43.332Z,14.51
2019-06-07T02:09:43.286Z,14.45
2019-06-07T02:10:43.260Z,14.45
2019-06-07T02:11:43.223Z,14.66
2019-06-07T02:12:43.833Z,14.62
2019-06-07T02:13:43.194Z,14.69
2019-06-07T02:14:43.138Z,14.66
2019-06-07T02:15:44.887Z,14.66
2019-06-07T02:16:45.888Z,14.66
2019-06-07T02:17:43.058Z,14.77
2019-06-07T02:19:00.611Z,14.69
2019-06-07T02:19:43.004Z,14.70
2019-06-07T02:20:42.997Z,14.63
2019-06-07T02:21:43.161Z,14.69
2019-06-07T02:22:42.923Z,14.66
2019-06-07T02:23:42.936Z,14.66
2019-06-07T02:24:43.748Z,14.70
2019-06-07T02:25:49.722Z,14.73
2019-06-07T02:26:42.815Z,14.69
2019-06-07T02:27:42.790Z,14.63
2019-06-07T02:28:45.487Z,14.60
2019-06-07T02:29:42.755Z,14.58
2019-06-07T02:30:53.226Z,14.54
2019-06-07T02:31:42.688Z,14.51
2019-06-07T02:32:42.654Z,14.53
2019-06-07T02:33:42.623Z,14.51
2019-06-07T02:34:42.626Z,14.62
2019-06-07T02:35:42.570Z,14.54
2019-06-07T02:36:42.542Z,14.55
2019-06-07T02:37:42.522Z,14.48
2019-06-07T02:38:42.544Z,14.54
2019-06-07T02:39:42.488Z,14.48
2019-06-07T02:40:42.434Z,14.51
2019-06-07T02:41:42.408Z,14.47
2019-06-07T02:42:42.994Z,14.53
2019-06-07T02:43:42.353Z,14.47
2019-06-07T02:44:42.360Z,14.44
2019-06-07T02:45:43.758Z,14.47
2019-06-07T02:46:48.934Z,14.45
2019-06-07T02:47:42.246Z,14.45
2019-06-07T02:48:42.297Z,14.47
2019-06-07T02:49:42.594Z,14.48
2019-06-07T02:50:42.163Z,14.30
2019-06-07T02:51:42.214Z,14.33
2019-06-07T02:52:42.490Z,14.45
2019-06-07T02:53:42.079Z,14.33
2019-06-07T02:54:42.143Z,14.47
2019-06-07T02:56:33.187Z,14.44
2019-06-07T02:56:56.365Z,14.36
2019-06-07T02:57:43.069Z,14.45
2019-06-07T02:58:42.410Z,14.40
2019-06-07T03:00:05.087Z,14.40
2019-06-07T03:01:00.220Z,14.37
2019-06-07T03:01:42.675Z,14.36
2019-06-07T03:02:41.935Z,14.35
2019-06-07T03:03:41.805Z,14.35
2019-06-07T03:04:44.480Z,14.37
2019-06-07T03:05:41.751Z,14.40
2019-06-07T03:06:44.017Z,14.40
2019-06-07T03:07:45.173Z,14.32
2019-06-07T03:08:41.669Z,14.40
2019-06-07T03:09:41.665Z,14.41
2019-06-07T03:10:41.958Z,14.37
2019-06-07T03:11:41.588Z,14.36
2019-06-07T03:12:41.559Z,14.33
2019-06-07T03:13:41.565Z,14.36
2019-06-07T03:14:41.535Z,14.35
2019-06-07T03:15:49.310Z,14.32
2019-06-07T03:16:41.454Z,14.40
2019-06-07T03:17:41.450Z,14.29
2019-06-07T03:18:41.830Z,14.35
2019-06-07T03:19:41.398Z,14.30
2019-06-07T03:20:41.410Z,14.29
2019-06-07T03:21:41.837Z,14.35
2019-06-07T03:22:41.755Z,14.35
2019-06-07T03:23:41.257Z,14.32
2019-06-07T03:24:42.296Z,14.23
2019-06-07T03:25:41.199Z,14.43
2019-06-07T03:27:31.833Z,14.33
2019-06-07T03:27:49.140Z,14.35
2019-06-07T03:28:41.118Z,14.43
2019-06-07T03:29:41.424Z,14.28
2019-06-07T03:30:58.026Z,14.32
2019-06-07T03:31:47.225Z,14.40
2019-06-07T03:32:47.215Z,14.36
2019-06-07T03:33:42.943Z,14.35
2019-06-07T03:34:43.492Z,14.44
2019-06-07T03:35:40.961Z,14.47
2019-06-07T03:36:40.899Z,14.45
2019-06-07T03:37:42.970Z,14.44
2019-06-07T03:38:40.844Z,14.55
2019-06-07T03:39:41.204Z,14.44
2019-06-07T03:40:40.856Z,14.60
2019-06-07T03:41:50.221Z,14.60
2019-06-07T03:42:41.490Z,14.55
2019-06-07T03:43:40.928Z,14.59
2019-06-07T03:44:41.453Z,14.55
2019-06-07T03:45:41.668Z,14.51
2019-06-07T03:46:41.786Z,14.54
2019-06-07T03:47:42.590Z,14.62
2019-06-07T03:48:41.499Z,14.53
2019-06-07T03:49:42.686Z,14.50
2019-06-07T03:50:42.236Z,14.55
2019-06-07T03:51:40.981Z,14.55
2019-06-07T03:52:41.657Z,14.59
2019-06-07T03:53:40.962Z,14.62
2019-06-07T03:54:40.417Z,14.60
2019-06-07T03:55:41.254Z,14.45
2019-06-07T03:56:41.192Z,14.55
2019-06-07T03:58:29.418Z,14.45
2019-06-07T03:58:48.997Z,14.47
2019-06-07T03:59:41.564Z,14.53
2019-06-07T04:00:43.261Z,14.45
2019-06-07T04:01:41.273Z,14.45
2019-06-07T04:02:42.013Z,14.47
2019-06-07T04:03:50.684Z,14.43
2019-06-07T04:04:40.146Z,14.43
2019-06-07T04:05:42.954Z,14.44
2019-06-07T04:06:42.585Z,14.47
2019-06-07T04:07:44.123Z,14.48
2019-06-07T04:08:42.211Z,14.60
2019-06-07T04:09:42.874Z,14.60
2019-06-07T04:10:55.719Z,14.69
2019-06-07T04:11:40.882Z,14.72
2019-06-07T04:12:43.775Z,14.78
2019-06-07T04:13:42.742Z,14.81
2019-06-07T04:14:42.515Z,14.88
2019-06-07T04:15:41.442Z,15.04
2019-06-07T04:16:43.641Z,15.11
2019-06-07T04:17:57.509Z,15.15
2019-06-07T04:18:42.384Z,15.15
2019-06-07T04:19:43.361Z,15.06
2019-06-07T04:20:41.482Z,15.06
2019-06-07T04:21:42.669Z,15.17
2019-06-07T04:22:42.539Z,15.31
2019-06-07T04:23:45.307Z,15.35
2019-06-07T04:24:41.919Z,15.42
2019-06-07T04:25:42.470Z,15.27
2019-06-07T04:26:43.591Z,15.55
2019-06-07T04:27:41.029Z,15.76
2019-06-07T04:29:31.157Z,15.83
2019-06-07T04:30:03.458Z,15.72
2019-06-07T04:30:41.508Z,15.68
2019-06-07T04:31:42.864Z,15.52
2019-06-07T04:32:44.359Z,15.46
2019-06-07T04:33:43.355Z,15.35
2019-06-07T04:34:42.911Z,15.21
2019-06-07T04:35:42.526Z,15.25
2019-06-07T04:36:55.848Z,15.24
2019-06-07T04:37:41.399Z,15.22
2019-06-07T04:38:40.583Z,15.21
2019-06-07T04:39:44.701Z,15.19
2019-06-07T04:40:42.461Z,15.35
2019-06-07T04:41:40.911Z,15.39
2019-06-07T04:42:44.483Z,15.51
2019-06-07T04:43:41.140Z,15.51
2019-06-07T04:44:41.045Z,15.44
2019-06-07T04:45:45.786Z,15.52
2019-06-07T04:46:42.184Z,15.58
2019-06-07T04:47:42.306Z,15.62
2019-06-07T04:48:43.210Z,15.64
2019-06-07T04:49:43.452Z,15.59
2019-06-07T04:50:43.444Z,15.58
2019-06-07T04:51:41.134Z,15.61
2019-06-07T04:52:42.616Z,15.57
2019-06-07T04:53:43.054Z,15.51
2019-06-07T04:54:45.556Z,15.52
2019-06-07T04:55:41.377Z,15.55
2019-06-07T04:56:43.753Z,15.64
2019-06-07T04:57:40.496Z,15.68
2019-06-07T04:58:41.135Z,15.70
2019-06-07T05:00:10.943Z,15.65
2019-06-07T05:01:02.426Z,15.64
2019-06-07T05:01:41.412Z,15.61
2019-06-07T05:02:40.923Z,15.54
2019-06-07T05:03:43.390Z,15.43
2019-06-07T05:04:39.776Z,15.42
2019-06-07T05:05:43.091Z,15.47
2019-06-07T05:06:40.337Z,15.54
2019-06-07T05:07:42.981Z,15.51
2019-06-07T05:08:43.358Z,15.57
2019-06-07T05:09:42.528Z,15.55
2019-06-07T05:10:41.139Z,15.57
2019-06-07T05:11:39.506Z,15.64
2019-06-07T05:12:40.448Z,15.73
2019-06-07T05:13:40.430Z,15.76
2019-06-07T05:14:39.865Z,15.72
2019-06-07T05:15:40.219Z,15.73
2019-06-07T05:16:40.761Z,15.76
2019-06-07T05:17:40.553Z,15.73
2019-06-07T05:18:41.663Z,15.80
2019-06-07T05:19:39.178Z,15.86
2019-06-07T05:20:40.793Z,15.88
2019-06-07T05:21:54.185Z,15.97
2019-06-07T05:22:40.873Z,16.02
2019-06-07T05:24:40.792Z,16.10
2019-06-07T05:25:42.615Z,16.20
2019-06-07T05:26:40.461Z,16.36
2019-06-07T05:27:39.302Z,16.51
2019-06-07T05:28:42.299Z,16.49
2019-06-07T05:29:41.749Z,16.57
2019-06-07T05:31:08.284Z,16.61
2019-06-07T05:31:41.725Z,16.51
2019-06-07T05:32:44.017Z,16.49
2019-06-07T05:33:38.955Z,16.32
2019-06-07T05:34:41.929Z,16.28
2019-06-07T05:35:40.075Z,16.28
2019-06-07T05:36:41.393Z,16.26
2019-06-07T05:37:38.240Z,16.26
2019-06-07T05:38:41.172Z,16.24
2019-06-07T05:39:41.987Z,16.23
2019-06-07T05:40:41.976Z,16.26
2019-06-07T05:41:41.164Z,16.38
2019-06-07T05:42:41.198Z,16.42
2019-06-07T05:43:40.912Z,16.57
2019-06-07T05:44:39.976Z,16.46
2019-06-07T05:45:42.279Z,16.26
2019-06-07T05:46:38.590Z,16.29
2019-06-07T05:47:43.744Z,16.26
2019-06-07T05:48:41.663Z,16.32
2019-06-07T05:49:41.023Z,16.35
2019-06-07T05:50:44.992Z,16.42
2019-06-07T05:51:41.444Z,16.33
2019-06-07T05:52:40.409Z,16.41
2019-06-07T05:53:38.942Z,16.47
2019-06-07T05:54:38.247Z,16.57
2019-06-07T05:55:37.943Z,16.53
2019-06-07T05:56:39.417Z,16.51
2019-06-07T05:57:40.521Z,16.49
2019-06-07T05:58:37.797Z,16.56
2019-06-07T06:00:39.021Z,16.60
2019-06-07T06:01:45.029Z,16.60
2019-06-07T06:02:57.260Z,16.83
2019-06-07T06:03:38.025Z,16.84
2019-06-07T06:04:39.341Z,16.83
2019-06-07T06:05:42.202Z,17.06
2019-06-07T06:06:38.811Z,17.08
2019-06-07T06:07:41.234Z,16.90
2019-06-07T06:08:39.479Z,16.84
2019-06-07T06:09:38.105Z,16.89
2019-06-07T06:10:39.599Z,16.96
2019-06-07T06:11:52.448Z,17.06
2019-06-07T06:12:40.616Z,17.20
2019-06-07T06:13:49.385Z,17.27
2019-06-07T06:14:39.579Z,17.34
2019-06-07T06:15:50.172Z,17.44
2019-06-07T06:16:37.200Z,17.51
2019-06-07T06:17:40.561Z,17.44
2019-06-07T06:18:37.765Z,17.33
2019-06-07T06:19:39.718Z,17.24
2019-06-07T06:21:00.813Z,17.27
2019-06-07T06:21:36.641Z,17.29
2019-06-07T06:22:37.419Z,17.38
2019-06-07T06:23:39.515Z,17.29
2019-06-07T06:24:37.236Z,17.31
2019-06-07T06:25:38.601Z,17.27
2019-06-07T06:26:43.137Z,17.12
2019-06-07T06:28:11.583Z,17.14
2019-06-07T06:28:37.197Z,17.11
2019-06-07T06:29:38.714Z,17.04
2019-06-07T06:30:36.376Z,17.01
2019-06-07T06:31:38.014Z,16.94
2019-06-07T06:32:52.986Z,16.89
2019-06-07T06:33:37.469Z,17.01
2019-06-07T06:34:40.142Z,17.04
2019-06-07T06:35:37.328Z,17.01
2019-06-07T06:36:37.368Z,17.01
2019-06-07T06:37:40.385Z,17.04
2019-06-07T06:38:38.287Z,17.02
2019-06-07T06:39:37.125Z,17.11
2019-06-07T06:40:38.286Z,17.11
2019-06-07T06:41:53.710Z,17.11
2019-06-07T06:42:37.036Z,17.22
2019-06-07T06:43:36.029Z,17.27
2019-06-07T06:44:36.027Z,17.34
2019-06-07T06:45:36.018Z,17.34
2019-06-07T06:46:41.031Z,17.42
2019-06-07T06:47:35.934Z,17.42
2019-06-07T06:48:35.900Z,17.42
2019-06-07T06:49:35.875Z,17.56
2019-06-07T06:50:35.899Z,17.63
2019-06-07T06:51:36.592Z,17.63
2019-06-07T06:52:35.845Z,17.56
2019-06-07T06:53:36.081Z,17.65
2019-06-07T06:54:42.830Z,17.67
2019-06-07T06:55:35.733Z,17.79
2019-06-07T06:56:35.706Z,17.71
2019-06-07T06:57:35.675Z,17.74
2019-06-07T06:59:18.635Z,17.76
2019-06-07T06:59:39.127Z,17.85
2019-06-07T07:00:46.337Z,17.90
2019-06-07T07:01:35.603Z,17.86
2019-06-07T07:03:26.922Z,17.92
2019-06-07T07:03:57.601Z,17.86
2019-06-07T07:04:35.698Z,17.83
2019-06-07T07:05:35.474Z,17.89
2019-06-07T07:06:35.451Z,17.90
2019-06-07T07:07:35.426Z,17.89
2019-06-07T07:08:35.400Z,17.86
2019-06-07T07:09:35.426Z,17.89
2019-06-07T07:10:35.351Z,17.95
2019-06-07T07:11:52.283Z,17.92
2019-06-07T07:12:35.308Z,17.98
2019-06-07T07:13:35.282Z,17.92
2019-06-07T07:14:35.328Z,18.01
2019-06-07T07:15:35.332Z,17.98
2019-06-07T07:16:35.203Z,17.98
2019-06-07T07:17:50.514Z,18.03
2019-06-07T07:18:35.181Z,18.04
2019-06-07T07:19:35.129Z,17.98
2019-06-07T07:20:35.108Z,17.95
2019-06-07T07:21:35.078Z,18.03
2019-06-07T07:22:35.067Z,17.94
2019-06-07T07:23:35.056Z,17.92
2019-06-07T07:24:35.013Z,18.05
2019-06-07T07:25:34.981Z,18.19
2019-06-07T07:26:35.020Z,18.33
2019-06-07T07:27:34.941Z,18.25
2019-06-07T07:28:34.933Z,18.31
2019-06-07T07:29:34.976Z,18.31
2019-06-07T07:30:37.075Z,18.35
2019-06-07T07:31:34.839Z,18.29
2019-06-07T07:32:34.808Z,18.38
2019-06-07T07:34:20.931Z,18.40
2019-06-07T07:34:37.183Z,18.43
2019-06-07T07:35:34.737Z,18.41
2019-06-07T07:36:39.538Z,18.44
2019-06-07T07:37:34.690Z,18.45
2019-06-07T07:38:34.689Z,18.62
2019-06-07T07:39:34.645Z,18.68
2019-06-07T07:40:57.174Z,18.68
2019-06-07T07:41:34.589Z,18.62
2019-06-07T07:42:34.569Z,18.70
2019-06-07T07:43:34.575Z,18.63
2019-06-07T07:44:34.517Z,18.70
2019-06-07T07:45:34.501Z,18.83
2019-06-07T07:46:35.492Z,18.84
2019-06-07T07:47:34.453Z,18.99
2019-06-07T07:48:34.454Z,18.96
2019-06-07T07:49:34.418Z,19.12
2019-06-07T07:50:34.379Z,19.12
2019-06-07T07:51:34.360Z,19.14
2019-06-07T07:52:34.328Z,19.14
2019-06-07T07:53:48.406Z,19.19
2019-06-07T07:54:34.274Z,19.22
2019-06-07T07:55:34.250Z,19.19
2019-06-07T07:56:35.045Z,19.21
2019-06-07T07:57:34.201Z,19.19
2019-06-07T07:58:34.182Z,19.16
2019-06-07T07:59:42.130Z,19.18
2019-06-07T08:00:52.199Z,19.15
2019-06-07T08:01:34.971Z,19.15
2019-06-07T08:02:34.083Z,19.18
2019-06-07T08:03:34.058Z,19.18
2019-06-07T08:05:12.811Z,19.22
2019-06-07T08:05:42.857Z,19.27
2019-06-07T08:06:34.554Z,19.34
2019-06-07T08:07:33.965Z,19.33
2019-06-07T08:08:33.941Z,19.37
2019-06-07T08:09:33.939Z,19.33
2019-06-07T08:10:33.915Z,19.36
2019-06-07T08:11:33.871Z,19.33
2019-06-07T08:12:55.458Z,19.34
2019-06-07T08:13:33.818Z,19.24
2019-06-07T08:14:33.824Z,19.22
2019-06-07T08:15:33.835Z,19.30
2019-06-07T08:16:33.896Z,19.30
2019-06-07T08:17:33.732Z,19.44
2019-06-07T08:18:33.707Z,19.39
2019-06-07T08:19:33.703Z,19.40
2019-06-07T08:20:33.663Z,19.41
2019-06-07T08:21:33.641Z,19.36
2019-06-07T08:22:33.609Z,19.39
2019-06-07T08:23:33.584Z,19.41
2019-06-07T08:24:33.587Z,19.40
2019-06-07T08:25:33.537Z,19.48
2019-06-07T08:26:33.511Z,19.52
2019-06-07T08:27:33.488Z,19.41
2019-06-07T08:28:33.464Z,19.49
2019-06-07T08:29:44.779Z,19.55
2019-06-07T08:30:55.174Z,19.55
2019-06-07T08:31:33.397Z,19.54
2019-06-07T08:32:33.376Z,19.64
2019-06-07T08:33:33.348Z,19.71
2019-06-07T08:34:33.388Z,19.69
2019-06-07T08:36:41.814Z,19.73
2019-06-07T08:38:14.088Z,19.77
2019-06-07T08:38:47.035Z,19.82
2019-06-07T08:39:33.230Z,19.86
2019-06-07T08:40:33.190Z,20.00
2019-06-07T08:41:33.161Z,20.06
2019-06-07T08:42:37.583Z,20.11
2019-06-07T08:43:33.139Z,20.21
2019-06-07T08:44:33.117Z,20.14
2019-06-07T08:45:33.067Z,20.21
2019-06-07T08:46:33.103Z,20.31
2019-06-07T08:47:33.021Z,20.26
2019-06-07T08:48:33.027Z,20.40
2019-06-07T08:49:33.004Z,20.39
2019-06-07T08:50:32.952Z,20.22
2019-06-07T08:51:32.930Z,20.14
2019-06-07T08:52:32.905Z,20.16
2019-06-07T08:53:32.878Z,20.25
2019-06-07T08:54:32.899Z,20.25
2019-06-07T08:55:32.834Z,20.19
2019-06-07T08:56:32.808Z,20.32
2019-06-07T08:57:32.792Z,20.41
2019-06-07T08:58:32.762Z,20.55
2019-06-07T08:59:32.742Z,20.62
2019-06-07T09:00:49.044Z,20.74
2019-06-07T09:01:32.692Z,20.84
2019-06-07T09:02:32.669Z,20.81
2019-06-07T09:03:32.649Z,20.92
2019-06-07T09:04:32.647Z,20.95
2019-06-07T09:05:32.658Z,20.90
2019-06-07T09:07:32.559Z,20.75
2019-06-07T09:08:32.543Z,20.75
2019-06-07T09:09:32.508Z,20.84
2019-06-07T09:10:32.736Z,20.93
2019-06-07T09:11:32.467Z,20.95
2019-06-07T09:12:32.441Z,21.11
2019-06-07T09:13:33.345Z,21.00
2019-06-07T09:14:32.397Z,20.95
2019-06-07T09:15:32.443Z,20.95
2019-06-07T09:16:32.353Z,21.00
2019-06-07T09:17:32.341Z,20.72
2019-06-07T09:18:42.681Z,20.75
2019-06-07T09:19:32.284Z,20.72
2019-06-07T09:20:36.839Z,20.67
2019-06-07T09:21:32.237Z,20.81
2019-06-07T09:22:32.219Z,20.81
2019-06-07T09:23:32.196Z,20.78
2019-06-07T09:24:32.165Z,20.95
2019-06-07T09:25:32.177Z,21.03
2019-06-07T09:26:32.128Z,21.05
2019-06-07T09:27:32.121Z,21.11
2019-06-07T09:28:32.097Z,20.96
2019-06-07T09:29:32.080Z,21.05
2019-06-07T09:30:32.054Z,21.09
2019-06-07T09:31:51.333Z,21.15
2019-06-07T09:32:31.988Z,21.27
2019-06-07T09:33:31.963Z,21.25
2019-06-07T09:34:31.942Z,21.36
2019-06-07T09:35:31.944Z,21.42
2019-06-07T09:36:31.895Z,21.50
2019-06-07T09:38:04.346Z,21.55
2019-06-07T09:38:31.851Z,21.67
2019-06-07T09:39:31.831Z,21.89
2019-06-07T09:40:31.833Z,22.04
2019-06-07T09:41:46.852Z,22.15
2019-06-07T09:42:31.765Z,22.18
2019-06-07T09:44:00.600Z,22.33
2019-06-07T09:44:31.723Z,22.41
2019-06-07T09:45:32.108Z,22.53
2019-06-07T09:46:31.680Z,22.51
2019-06-07T09:47:32.886Z,22.62
2019-06-07T09:49:10.055Z,22.54
2019-06-07T09:49:33.382Z,22.62
2019-06-07T09:50:31.617Z,22.63
2019-06-07T09:51:31.568Z,22.75
2019-06-07T09:52:31.550Z,22.81
2019-06-07T09:53:31.522Z,22.88
2019-06-07T09:55:03.814Z,22.96
2019-06-07T09:55:31.481Z,22.93
2019-06-07T09:56:31.479Z,23.05
2019-06-07T09:57:31.440Z,23.23
2019-06-07T09:58:51.367Z,23.25
2019-06-07T09:59:31.397Z,23.27
2019-06-07T10:00:40.699Z,23.27
2019-06-07T10:01:31.380Z,23.31
2019-06-07T10:02:31.347Z,23.27
2019-06-07T10:03:31.317Z,23.20
2019-06-07T10:04:31.723Z,23.09
2019-06-07T10:05:31.268Z,23.09
2019-06-07T10:06:31.269Z,23.02
2019-06-07T10:07:32.152Z,22.93
2019-06-07T10:11:31.176Z,22.73
2019-06-07T10:12:31.124Z,22.72
2019-06-07T10:13:31.101Z,22.75
2019-06-07T10:14:31.082Z,22.78
2019-06-07T10:15:31.057Z,22.80
2019-06-07T10:16:45.821Z,22.91
2019-06-07T10:17:31.024Z,23.00
2019-06-07T10:18:31.024Z,23.05
2019-06-07T10:19:30.979Z,22.94
2019-06-07T10:20:30.964Z,22.98
2019-06-07T10:21:30.961Z,23.02
2019-06-07T10:22:30.909Z,22.99
2019-06-07T10:23:30.909Z,22.94
2019-06-07T10:24:30.870Z,23.03
2019-06-07T10:25:30.851Z,23.24
2019-06-07T10:26:30.852Z,23.32
2019-06-07T10:27:30.812Z,23.41
2019-06-07T10:28:30.786Z,23.55
2019-06-07T10:29:30.764Z,23.69
2019-06-07T10:30:30.753Z,23.80
2019-06-07T10:31:30.749Z,23.96
2019-06-07T10:32:30.718Z,24.11
2019-06-07T10:33:30.701Z,24.33
2019-06-07T10:34:30.665Z,24.38
2019-06-07T10:35:30.645Z,24.42
2019-06-07T10:36:30.652Z,24.73
2019-06-07T10:37:30.600Z,24.89
2019-06-07T10:38:30.576Z,25.03
2019-06-07T10:39:30.565Z,25.16
2019-06-07T10:40:30.539Z,25.32
2019-06-07T10:41:30.542Z,25.36
2019-06-07T10:42:30.512Z,25.47
2019-06-07T10:43:30.513Z,25.47
2019-06-07T10:44:30.465Z,25.63
2019-06-07T10:45:30.435Z,25.43
2019-06-07T10:46:30.438Z,25.41
2019-06-07T10:47:30.457Z,25.46
2019-06-07T10:48:30.381Z,25.51
2019-06-07T10:49:30.357Z,25.54
2019-06-07T10:50:30.343Z,25.55
2019-06-07T10:51:30.352Z,25.55
2019-06-07T10:52:30.309Z,25.55
2019-06-07T10:53:30.444Z,25.70
2019-06-07T10:54:30.944Z,25.84
2019-06-07T10:55:30.240Z,25.99
2019-06-07T10:56:30.249Z,26.06
2019-06-07T10:57:30.205Z,26.03
2019-06-07T10:58:30.186Z,26.06
2019-06-07T10:59:30.177Z,26.00
2019-06-07T11:00:30.147Z,25.84
2019-06-07T11:01:30.172Z,25.73
2019-06-07T11:02:30.111Z,25.66
2019-06-07T11:03:35.021Z,25.78
2019-06-07T11:04:30.076Z,26.05
2019-06-07T11:05:30.059Z,26.28
2019-06-07T11:06:30.035Z,26.26
2019-06-07T11:07:30.042Z,26.31
2019-06-07T11:08:29.999Z,26.48
2019-06-07T11:09:29.982Z,26.62
2019-06-07T11:10:29.968Z,26.58
2019-06-07T11:11:29.948Z,26.62
2019-06-07T11:12:29.951Z,26.65
2019-06-07T11:13:30.078Z,26.62
2019-06-07T11:14:29.893Z,26.62
2019-06-07T11:15:29.876Z,26.63
2019-06-07T11:16:29.858Z,26.66
2019-06-07T11:17:29.866Z,26.71
2019-06-07T11:18:29.820Z,26.52
2019-06-07T11:19:29.820Z,26.19
2019-06-07T11:20:29.782Z,26.06
2019-06-07T11:21:29.764Z,25.84
2019-06-07T11:22:29.768Z,25.77
2019-06-07T11:23:33.528Z,25.70
2019-06-07T11:24:29.717Z,25.72
2019-06-07T11:25:29.692Z,25.53
2019-06-07T11:26:29.706Z,25.43
2019-06-07T11:27:29.679Z,25.29
2019-06-07T11:28:29.637Z,25.25
2019-06-07T11:29:29.615Z,25.17
2019-06-07T11:30:29.600Z,25.21
2019-06-07T11:31:29.582Z,25.08
2019-06-07T11:32:29.594Z,25.16
2019-06-07T11:33:30.035Z,25.29
2019-06-07T11:34:29.526Z,25.43
2019-06-07T11:35:29.507Z,25.47
2019-06-07T11:36:29.523Z,25.62
2019-06-07T11:37:29.497Z,25.66
2019-06-07T11:38:29.448Z,25.55
2019-06-07T11:39:29.430Z,25.32
2019-06-07T11:40:35.628Z,25.29
2019-06-07T11:41:29.399Z,25.17
2019-06-07T11:42:29.394Z,25.03
2019-06-07T11:43:30.041Z,24.93
2019-06-07T11:44:29.335Z,24.95
2019-06-07T11:45:29.317Z,24.96
2019-06-07T11:46:29.294Z,24.95
2019-06-07T11:47:29.315Z,24.98
2019-06-07T11:48:29.260Z,24.96
2019-06-07T11:49:29.237Z,24.92
2019-06-07T11:50:29.225Z,24.93
2019-06-07T11:51:29.221Z,25.01
2019-06-07T11:52:29.202Z,25.26
2019-06-07T11:53:30.540Z,25.22
2019-06-07T11:54:29.169Z,25.03
2019-06-07T11:55:29.121Z,25.04
2019-06-07T11:56:29.107Z,25.10
2019-06-07T11:57:29.122Z,25.10
2019-06-07T11:58:29.066Z,25.14
2019-06-07T11:59:29.059Z,25.03
2019-06-07T12:00:29.042Z,25.07
2019-06-07T12:01:29.007Z,25.01
2019-06-07T12:02:29.017Z,24.96
2019-06-07T12:03:28.988Z,24.80
2019-06-07T12:04:34.709Z,24.80
2019-06-07T12:05:28.929Z,24.76
2019-06-07T12:06:28.919Z,24.76
2019-06-07T12:07:28.916Z,24.63
2019-06-07T12:08:28.868Z,24.84
2019-06-07T12:09:28.852Z,24.86
2019-06-07T12:10:41.840Z,24.96
2019-06-07T12:11:28.813Z,24.91
2019-06-07T12:12:28.812Z,24.98
2019-06-07T12:13:28.772Z,24.91
2019-06-07T12:14:28.760Z,24.80
2019-06-07T12:15:28.842Z,24.78
2019-06-07T12:16:28.716Z,24.80
2019-06-07T12:17:28.715Z,24.81
2019-06-07T12:18:28.683Z,24.68
2019-06-07T12:19:28.648Z,24.58
2019-06-07T12:20:28.632Z,24.55
2019-06-07T12:21:28.605Z,24.69
2019-06-07T12:22:28.587Z,24.76
2019-06-07T12:25:00.646Z,24.68
2019-06-07T12:26:00.617Z,24.80
2019-06-07T12:27:00.631Z,24.77
2019-06-07T12:28:00.589Z,24.66
2019-06-07T12:29:00.546Z,24.66
2019-06-07T12:30:09.203Z,24.78
2019-06-07T12:31:00.505Z,24.66
2019-06-07T12:32:00.488Z,24.77
2019-06-07T12:33:00.506Z,24.86
2019-06-07T12:34:00.444Z,24.92
2019-06-07T12:35:00.430Z,24.98
2019-06-07T12:36:00.547Z,24.89
2019-06-07T12:37:00.387Z,24.93
2019-06-07T12:38:00.392Z,24.91
2019-06-07T12:39:00.348Z,24.92
2019-06-07T12:40:00.327Z,24.73
2019-06-07T12:41:00.310Z,24.61
2019-06-07T12:42:00.290Z,24.53
2019-06-07T12:43:00.286Z,24.66
2019-06-07T12:44:00.251Z,24.76
2019-06-07T12:45:00.226Z,24.88
2019-06-07T12:46:00.214Z,25.03
2019-06-07T12:47:00.360Z,25.13
2019-06-07T12:48:00.192Z,25.23
2019-06-07T12:49:00.145Z,25.32
2019-06-07T12:50:00.156Z,25.43
2019-06-07T12:51:00.109Z,25.58
2019-06-07T12:52:00.140Z,25.59
2019-06-07T12:53:00.089Z,25.58
2019-06-07T12:54:00.126Z,25.58
2019-06-07T12:55:00.049Z,25.51
2019-06-07T12:56:00.348Z,25.40
2019-06-07T12:56:59.991Z,25.35
2019-06-07T12:57:59.966Z,25.31
2019-06-07T12:58:59.969Z,25.29
2019-06-07T12:59:59.923Z,25.23
2019-06-07T13:01:00.026Z,25.14
2019-06-07T13:02:02.463Z,25.22